Time;durP1;ratioP1;P1;durP2;ratioP2;P2;SDS_P1;SDS_P2;PMS_P1;PMS_P2;Temp;Humidity;BMP_temperature;BMP_pressure;BME280_temperature;BME280_humidity;BME280_pressure;Samples;Min_cycle;Max_cycle;Signal;HPM_P1;HPM_P2
2024/01/12 06:01:10;;;;;;;76.10;34.50;;;-5.00;82.90;;;;;;4528542;23;20098;-77
2024/01/12 06:03:12;;;;;;;75.40;34.75;;;-4.90;82.30;;;;;;4068610;29;20052;-76
2024/01/12 06:05:14;;;;;;;82.70;37.30;;;-4.80;81.80;;;;;;4068799;29;20075;-77
2024/01/12 06:07:15;;;;;;;77.60;35.53;;;-4.80;81.50;;;;;;4068744;29;20051;-78
2024/01/12 06:09:17;;;;;;;77.97;35.55;;;-4.80;81.30;;;;;;4069077;29;20536;-75
2024/01/12 06:11:19;;;;;;;77.85;35.97;;;-4.80;81.00;;;;;;4068742;29;20055;-78
2024/01/12 06:13:21;;;;;;;75.63;35.30;;;-4.80;80.80;;;;;;4068752;29;20052;-78
2024/01/12 06:15:23;;;;;;;71.68;34.70;;;-4.80;80.30;;;;;;4068697;29;20115;-77
2024/01/12 06:17:26;;;;;;;76.05;34.33;;;-4.80;79.60;;;;;;4068576;29;20052;-77
2024/01/12 06:19:28;;;;;;;74.30;34.60;;;-4.90;79.30;;;;;;4068700;29;20417;-77
2024/01/12 06:21:30;;;;;;;76.30;34.88;;;-4.90;79.20;;;;;;4068619;29;20040;-76
2024/01/12 06:23:31;;;;;;;75.03;34.88;;;-4.90;79.00;;;;;;4068567;29;20040;-77
2024/01/12 06:25:36;;;;;;;75.78;34.13;;;-4.90;79.30;;;;;;4068771;29;20111;-78
2024/01/12 06:27:38;;;;;;;75.93;35.00;;;-4.90;79.30;;;;;;4068718;29;20049;-75
2024/01/12 06:29:40;;;;;;;74.43;34.58;;;-4.90;79.20;;;;;;4068667;29;20048;-78
2024/01/12 06:31:41;;;;;;;72.25;33.20;;;-4.90;79.10;;;;;;4064561;29;20285;-76
2024/01/12 06:33:45;;;;;;;73.68;33.63;;;-4.90;78.60;;;;;;4068710;29;20056;-78
2024/01/12 06:35:46;;;;;;;71.60;33.45;;;-4.90;78.50;;;;;;4068683;29;20108;-75
2024/01/12 06:37:47;;;;;;;77.10;35.13;;;-4.90;78.50;;;;;;4068613;29;20115;-75
2024/01/12 06:39:49;;;;;;;77.22;35.28;;;-4.90;78.50;;;;;;4068617;29;20096;-76
2024/01/12 06:41:52;;;;;;;74.25;35.35;;;-5.00;78.20;;;;;;4068907;29;20048;-76
2024/01/12 06:43:53;;;;;;;68.80;33.53;;;-5.10;78.20;;;;;;4068603;29;20055;-76
2024/01/12 06:45:55;;;;;;;71.80;34.10;;;-5.20;78.00;;;;;;4068866;29;20433;-75
2024/01/12 06:47:57;;;;;;;73.22;34.75;;;-5.30;77.90;;;;;;4068513;29;20382;-74
2024/01/12 06:50:00;;;;;;;71.53;33.88;;;-5.40;78.10;;;;;;4069281;29;20541;-78
2024/01/12 06:52:02;;;;;;;70.90;33.13;;;-5.40;78.20;;;;;;4069202;29;20092;-75
2024/01/12 06:54:05;;;;;;;70.35;32.58;;;-5.50;77.80;;;;;;4069134;29;20048;-79
2024/01/12 06:56:06;;;;;;;77.78;34.15;;;-5.50;77.70;;;;;;4071660;29;20056;-78
2024/01/12 06:58:08;;;;;;;75.05;33.50;;;-5.50;77.70;;;;;;4071546;29;20056;-75
2024/01/12 07:00:11;;;;;;;73.85;33.38;;;-5.40;78.10;;;;;;4072086;29;20060;-77
2024/01/12 07:02:14;;;;;;;77.50;33.45;;;-5.40;78.30;;;;;;4071036;29;20461;-76
2024/01/12 07:04:16;;;;;;;74.72;34.47;;;-5.40;78.30;;;;;;4071699;29;20067;-77
2024/01/12 07:06:18;;;;;;;69.82;34.05;;;-5.50;78.90;;;;;;4071385;29;20056;-78
2024/01/12 07:08:20;;;;;;;71.18;34.25;;;-5.50;78.70;;;;;;4071204;29;20426;-76
2024/01/12 07:10:22;;;;;;;71.15;34.20;;;-5.60;78.70;;;;;;4071091;29;20107;-76
2024/01/12 07:12:23;;;;;;;73.10;33.97;;;-5.70;78.40;;;;;;4071156;29;20107;-76
2024/01/12 07:14:25;;;;;;;66.65;33.38;;;-5.60;78.40;;;;;;4071382;29;20048;-77
2024/01/12 07:16:27;;;;;;;78.43;36.20;;;-5.60;78.00;;;;;;4071264;29;20096;-76
2024/01/12 07:18:29;;;;;;;72.50;34.95;;;-5.60;77.60;;;;;;4070416;29;20409;-73
2024/01/12 07:20:31;;;;;;;73.07;33.70;;;-5.80;77.30;;;;;;4071659;29;20438;-75
2024/01/12 07:22:34;;;;;;;78.95;36.10;;;-5.80;79.80;;;;;;4071565;29;20048;-77
2024/01/12 07:24:36;;;;;;;84.82;36.85;;;-5.80;80.70;;;;;;4079868;29;20072;-75
2024/01/12 07:26:38;;;;;;;89.00;36.72;;;-5.70;83.90;;;;;;4075744;29;20048;-75
2024/01/12 07:28:40;;;;;;;83.22;37.70;;;-5.60;84.60;;;;;;4070781;29;20104;-76
2024/01/12 07:30:42;;;;;;;79.68;36.95;;;-5.60;81.20;;;;;;4071101;29;20442;-76
2024/01/12 07:32:43;;;;;;;73.55;35.42;;;-5.60;79.60;;;;;;4070707;29;20056;-77
2024/01/12 07:34:45;;;;;;;79.40;36.08;;;-5.50;81.00;;;;;;4070721;29;20403;-76
2024/01/12 07:36:47;;;;;;;79.10;36.80;;;-5.50;79.60;;;;;;4070947;29;20104;-77
2024/01/12 07:38:50;;;;;;;75.40;36.63;;;-5.50;79.60;;;;;;4070470;29;20103;-78
2024/01/12 07:40:52;;;;;;;81.20;35.92;;;-5.40;79.50;;;;;;4070567;29;20391;-79
2024/01/12 07:42:54;;;;;;;75.35;35.40;;;-5.40;79.30;;;;;;4070729;29;20056;-78
2024/01/12 07:44:56;;;;;;;77.90;36.53;;;-5.40;80.20;;;;;;4071073;29;20104;-78
2024/01/12 07:46:57;;;;;;;75.55;35.72;;;-5.30;80.10;;;;;;4071427;29;20482;-76
2024/01/12 07:48:59;;;;;;;78.40;36.08;;;-5.20;80.60;;;;;;4071002;29;20048;-77
2024/01/12 07:51:01;;;;;;;77.03;35.78;;;-5.20;80.80;;;;;;4071190;29;20512;-77
2024/01/12 07:53:03;;;;;;;78.07;35.67;;;-5.10;81.00;;;;;;4070934;29;20076;-77
2024/01/12 07:55:07;;;;;;;79.45;35.38;;;-5.10;81.20;;;;;;4071037;29;20047;-74
2024/01/12 07:57:09;;;;;;;75.60;35.10;;;-5.10;81.40;;;;;;4070615;29;20044;-77
2024/01/12 07:59:13;;;;;;;74.88;35.78;;;-5.00;81.60;;;;;;4070441;29;20052;-75
2024/01/12 08:01:16;;;;;;;72.00;34.20;;;-5.00;81.60;;;;;;4070418;29;20127;-78
2024/01/12 08:03:18;;;;;;;74.18;34.42;;;-4.90;81.40;;;;;;4070504;29;20052;-76
2024/01/12 08:05:22;;;;;;;76.07;35.40;;;-5.00;81.10;;;;;;4070303;29;20044;-80
2024/01/12 08:07:22;;;;;;;83.10;37.63;;;-5.00;80.80;;;;;;4070519;29;20458;-77
2024/01/12 08:09:24;;;;;;;88.90;40.72;;;-5.00;80.60;;;;;;4070282;29;20052;-76
2024/01/12 08:11:27;;;;;;;82.40;37.00;;;-4.90;81.10;;;;;;4070672;29;20052;-76
2024/01/12 08:13:29;;;;;;;73.40;34.53;;;-4.90;81.00;;;;;;4070286;29;20044;-77
2024/01/12 08:15:32;;;;;;;67.88;33.13;;;-4.90;80.20;;;;;;4070250;29;20043;-79
2024/01/12 08:17:34;;;;;;;76.25;34.13;;;-5.00;79.40;;;;;;4070294;29;20456;-80
2024/01/12 08:19:35;;;;;;;72.28;33.22;;;-5.10;78.30;;;;;;4070354;29;20116;-78
2024/01/12 08:21:37;;;;;;;79.70;35.20;;;-5.10;79.10;;;;;;4070403;29;20108;-78
2024/01/12 08:23:39;;;;;;;73.38;33.97;;;-5.00;80.10;;;;;;4070213;29;20103;-77
2024/01/12 08:25:41;;;;;;;74.55;33.22;;;-4.90;79.90;;;;;;4070513;29;20383;-77
2024/01/12 08:27:44;;;;;;;73.43;33.20;;;-4.90;79.40;;;;;;4070205;29;20115;-80
2024/01/12 08:29:46;;;;;;;75.82;34.53;;;-4.90;78.10;;;;;;4070062;29;20048;-77
2024/01/12 08:31:50;;;;;;;78.97;35.03;;;-5.10;78.80;;;;;;4070102;29;20048;-75
2024/01/12 08:33:52;;;;;;;77.43;36.20;;;-5.10;79.80;;;;;;4070624;29;20067;-76
2024/01/12 08:35:54;;;;;;;76.15;33.92;;;-5.10;80.30;;;;;;4069974;29;20092;-80
2024/01/12 08:37:56;;;;;;;78.20;35.72;;;-5.00;81.20;;;;;;4070091;29;20052;-76
2024/01/12 08:39:58;;;;;;;77.28;36.33;;;-4.90;81.10;;;;;;4070502;29;20083;-75
2024/01/12 08:41:59;;;;;;;80.13;36.47;;;-4.80;81.20;;;;;;4070207;29;20509;-76
2024/01/12 08:44:02;;;;;;;77.68;36.08;;;-4.70;81.60;;;;;;4068693;29;20139;-78
2024/01/12 08:46:04;;;;;;;79.97;36.33;;;-4.70;81.40;;;;;;4070271;29;20048;-77
2024/01/12 08:48:07;;;;;;;76.30;35.95;;;-4.60;81.40;;;;;;4070228;29;20052;-76
2024/01/12 08:50:10;;;;;;;79.15;36.17;;;-4.60;81.50;;;;;;4070174;29;20088;-78
2024/01/12 08:52:11;;;;;;;84.57;38.88;;;-4.50;81.60;;;;;;4070174;29;20044;-81
2024/01/12 08:54:12;;;;;;;87.75;38.92;;;-4.40;81.60;;;;;;4069619;29;20107;-75
2024/01/12 08:56:13;;;;;;;77.97;36.80;;;-4.30;81.40;;;;;;4069986;29;20052;-79
2024/01/12 08:58:15;;;;;;;80.28;37.40;;;-4.20;81.40;;;;;;4071806;29;20104;-79
2024/01/12 09:00:19;;;;;;;79.63;37.33;;;-4.20;80.70;;;;;;4070934;29;20056;-76
2024/01/12 09:02:21;;;;;;;75.72;36.67;;;-4.20;80.40;;;;;;4069132;29;20052;-78
2024/01/12 09:04:23;;;;;;;78.20;36.92;;;-4.10;80.20;;;;;;4069975;29;20052;-79
2024/01/12 09:06:24;;;;;;;83.47;38.75;;;-4.10;80.20;;;;;;4069397;29;20048;-75
2024/01/12 09:08:25;;;;;;;82.68;38.55;;;-4.00;80.00;;;;;;4069417;29;20390;-81
2024/01/12 09:10:26;;;;;;;80.32;39.35;;;-4.00;79.70;;;;;;4069610;29;20051;-78
2024/01/12 09:12:28;;;;;;;81.82;37.58;;;-4.00;79.50;;;;;;4069343;29;20082;-80
2024/01/12 09:14:30;;;;;;;82.82;37.95;;;-4.00;79.30;;;;;;4069514;29;20052;-80
2024/01/12 09:16:32;;;;;;;80.03;38.00;;;-3.90;79.10;;;;;;4069438;29;20047;-80
2024/01/12 09:18:34;;;;;;;82.43;38.83;;;-3.80;78.60;;;;;;4068987;29;20560;-78
2024/01/12 09:20:36;;;;;;;85.72;40.90;;;-3.80;78.60;;;;;;4069428;29;20055;-78
2024/01/12 09:22:38;;;;;;;82.22;38.72;;;-3.80;78.50;;;;;;4069206;29;20494;-79
2024/01/12 09:24:40;;;;;;;79.65;37.83;;;-3.70;78.60;;;;;;4069022;29;20052;-80
2024/01/12 09:26:42;;;;;;;83.65;38.58;;;-3.60;78.70;;;;;;4069070;29;20048;-79
2024/01/12 09:28:44;;;;;;;82.40;39.13;;;-3.60;78.60;;;;;;4068946;29;20417;-78
2024/01/12 09:30:46;;;;;;;80.38;38.22;;;-3.60;78.40;;;;;;4069400;29;20116;-78
2024/01/12 09:32:49;;;;;;;82.90;39.67;;;-3.60;78.50;;;;;;4069401;29;20052;-76
2024/01/12 09:34:51;;;;;;;80.85;38.25;;;-3.60;78.70;;;;;;4069524;29;20048;-75
2024/01/12 09:36:53;;;;;;;84.47;37.92;;;-3.60;78.50;;;;;;4069074;29;20080;-77
2024/01/12 09:38:55;;;;;;;77.32;36.42;;;-3.50;78.50;;;;;;4069048;29;20045;-79
2024/01/12 09:40:58;;;;;;;78.72;39.25;;;-3.50;78.60;;;;;;4069054;29;20052;-80
2024/01/12 09:43:01;;;;;;;76.45;38.15;;;-3.50;78.70;;;;;;4068896;29;20103;-78
2024/01/12 09:45:04;;;;;;;78.13;37.72;;;-3.50;78.70;;;;;;4068957;29;20048;-80
2024/01/12 09:47:06;;;;;;;79.32;38.17;;;-3.40;78.80;;;;;;4069046;29;20056;-77
2024/01/12 09:49:08;;;;;;;78.43;38.20;;;-3.40;78.60;;;;;;4069125;29;20104;-76
2024/01/12 09:51:13;;;;;;;81.20;38.97;;;-3.40;78.90;;;;;;4068921;29;20143;-81
2024/01/12 09:53:15;;;;;;;80.70;38.97;;;-3.30;78.70;;;;;;4069113;29;20116;-79
2024/01/12 09:55:17;;;;;;;75.65;36.97;;;-3.30;78.60;;;;;;4069104;29;20043;-78
2024/01/12 09:57:19;;;;;;;74.53;36.17;;;-3.30;78.70;;;;;;4066798;29;20052;-80
2024/01/12 09:59:24;;;;;;;77.68;36.33;;;-3.20;78.90;;;;;;4067002;29;20059;-81
2024/01/12 10:01:28;;;;;;;82.60;37.95;;;-3.20;78.80;;;;;;4066737;29;20476;-79
2024/01/12 10:03:30;;;;;;;81.10;37.72;;;-3.20;78.90;;;;;;4067065;29;20056;-79
2024/01/12 10:05:33;;;;;;;80.30;38.30;;;-3.10;78.70;;;;;;4067226;29;20496;-79
2024/01/12 10:07:36;;;;;;;84.47;37.42;;;-3.20;78.70;;;;;;4066810;29;20534;-77
2024/01/12 10:09:38;;;;;;;79.28;38.75;;;-3.20;79.30;;;;;;4067323;29;20052;-79
2024/01/12 10:11:40;;;;;;;86.45;39.42;;;-3.20;79.10;;;;;;4067176;29;20111;-80
2024/01/12 10:13:42;;;;;;;82.75;38.17;;;-3.20;79.30;;;;;;4066764;29;20063;-78
2024/01/12 10:15:44;;;;;;;76.95;37.83;;;-3.10;79.40;;;;;;4066852;29;20048;-76
2024/01/12 10:17:48;;;;;;;82.63;39.22;;;-3.00;79.40;;;;;;4067085;29;20055;-77
2024/01/12 10:19:50;;;;;;;85.05;39.35;;;-3.00;79.40;;;;;;4066793;29;20136;-80
2024/01/12 10:21:53;;;;;;;79.38;38.65;;;-2.90;79.60;;;;;;4066607;29;20056;-81
2024/01/12 10:24:02;;;;;;;87.50;40.00;;;-2.90;79.60;;;;;;4066917;29;20048;-80
2024/01/12 10:26:05;;;;;;;76.90;37.92;;;-2.80;79.80;;;;;;4066742;29;20120;-79
2024/01/12 10:28:07;;;;;;;79.13;38.28;;;-2.80;79.90;;;;;;4066900;29;20074;-81
2024/01/12 10:30:10;;;;;;;77.20;38.13;;;-2.80;80.30;;;;;;4069356;29;20456;-78
2024/01/12 10:32:12;;;;;;;84.00;38.70;;;-2.80;80.50;;;;;;4069790;29;20048;-77
2024/01/12 10:34:15;;;;;;;84.22;38.85;;;-2.70;80.50;;;;;;4069982;29;20143;-79
2024/01/12 10:36:22;;;;;;;83.63;39.65;;;-2.70;80.30;;;;;;4069938;29;20135;-80
2024/01/12 10:38:25;;;;;;;83.15;37.47;;;-2.60;80.10;;;;;;4070129;29;20048;-80
2024/01/12 10:40:27;;;;;;;78.88;38.17;;;-2.60;80.20;;;;;;4070012;29;20052;-78
2024/01/12 10:42:29;;;;;;;77.15;38.03;;;-2.50;80.40;;;;;;4070895;29;20052;-77
2024/01/12 10:44:34;;;;;;;82.05;39.75;;;-2.50;80.20;;;;;;4071145;29;20505;-78
2024/01/12 10:46:41;;;;;;;77.35;38.35;;;-2.40;80.50;;;;;;4071535;29;20044;-77
2024/01/12 10:48:55;;;;;;;81.47;39.13;;;-2.30;80.40;;;;;;4072193;29;20048;-78
2024/01/12 10:51:02;;;;;;;77.13;37.45;;;-2.20;80.10;;;;;;4070915;29;20040;-80
2024/01/12 10:53:12;;;;;;;78.45;38.22;;;-2.10;79.70;;;;;;4072152;29;20048;-77
2024/01/12 10:55:17;;;;;;;74.93;37.58;;;-2.10;79.50;;;;;;4072456;29;20083;-79
2024/01/12 10:57:20;;;;;;;78.57;38.33;;;-2.10;79.40;;;;;;4073020;29;20442;-73
2024/01/12 10:59:23;;;;;;;77.85;38.20;;;-2.00;79.40;;;;;;4089718;29;20040;-78
2024/01/12 11:01:25;;;;;;;76.95;39.63;;;-1.90;79.30;;;;;;4090320;29;20401;-77
2024/01/12 11:03:28;;;;;;;79.78;39.70;;;-1.90;79.50;;;;;;4089783;29;20482;-76
2024/01/12 11:05:32;;;;;;;77.82;39.13;;;-1.90;79.50;;;;;;4085249;29;20048;-76
2024/01/12 11:07:35;;;;;;;78.20;38.58;;;-1.80;79.30;;;;;;4087332;29;20052;-77
2024/01/12 11:09:37;;;;;;;83.50;39.88;;;-1.70;78.90;;;;;;4088013;29;20036;-75
2024/01/12 11:11:48;;;;;;;74.00;38.60;;;-1.70;78.90;;;;;;4076196;29;20123;-81
2024/01/12 11:13:50;;;;;;;75.57;39.08;;;-1.70;78.90;;;;;;4073420;29;20496;-77
2024/01/12 11:15:54;;;;;;;79.22;39.95;;;-1.70;79.10;;;;;;4072790;29;20108;-76
2024/01/12 11:17:56;;;;;;;75.43;37.90;;;-1.60;79.30;;;;;;4073635;29;20486;-80
2024/01/12 11:20:07;;;;;;;79.35;39.20;;;-1.50;79.50;;;;;;4071808;29;20056;-77
2024/01/12 11:22:10;;;;;;;77.35;37.72;;;-1.40;79.20;;;;;;4071373;29;20048;-80
2024/01/12 11:24:12;;;;;;;76.10;38.92;;;-1.40;78.70;;;;;;4071410;29;20426;-79
2024/01/12 11:26:14;;;;;;;73.18;37.38;;;-1.40;78.60;;;;;;4071369;29;20052;-78
2024/01/12 11:28:18;;;;;;;72.28;37.00;;;-1.40;78.60;;;;;;4071069;29;20104;-79
2024/01/12 11:30:20;;;;;;;80.60;39.15;;;-1.40;78.50;;;;;;4071106;29;20052;-80
2024/01/12 11:32:22;;;;;;;86.63;39.47;;;-1.30;78.40;;;;;;4071170;29;20055;-79
2024/01/12 11:34:23;;;;;;;79.18;39.20;;;-1.30;78.40;;;;;;4071205;29;20052;-79
2024/01/12 11:36:27;;;;;;;76.38;37.95;;;-1.30;78.20;;;;;;4071095;29;20104;-80
2024/01/12 11:38:39;;;;;;;74.55;38.47;;;-1.30;78.60;;;;;;4071040;29;20131;-80
2024/01/12 11:40:44;;;;;;;73.07;37.88;;;-1.20;78.40;;;;;;4070422;29;20458;-80
2024/01/12 11:42:48;;;;;;;73.15;38.53;;;-1.10;77.90;;;;;;4069897;29;20055;-81
2024/01/12 11:44:52;;;;;;;76.65;39.53;;;-1.20;78.00;;;;;;4070890;29;20051;-79
2024/01/12 11:46:54;;;;;;;73.25;36.83;;;-1.00;78.30;;;;;;4070772;29;20516;-80
2024/01/12 11:48:56;;;;;;;74.25;36.97;;;-1.00;77.40;;;;;;4070905;29;20056;-77
2024/01/12 11:50:58;;;;;;;72.95;36.60;;;-0.90;77.20;;;;;;4070694;29;20063;-80
2024/01/12 11:53:01;;;;;;;72.72;36.95;;;-0.90;76.00;;;;;;4070938;29;20099;-79
2024/01/12 11:55:04;;;;;;;70.60;36.63;;;-1.00;76.20;;;;;;4070710;29;20458;-79
2024/01/12 11:57:05;;;;;;;71.88;36.35;;;-0.80;76.00;;;;;;4070888;29;20075;-79
2024/01/12 11:59:08;;;;;;;69.22;35.88;;;-0.70;75.60;;;;;;4070711;29;20048;-78
2024/01/12 12:01:11;;;;;;;68.90;37.55;;;-0.60;75.30;;;;;;4070561;29;20095;-79
2024/01/12 12:03:13;;;;;;;73.60;36.97;;;-0.70;74.60;;;;;;4070547;29;20056;-82
2024/01/12 12:05:14;;;;;;;72.55;37.58;;;-0.70;74.90;;;;;;4070594;29;20466;-79
2024/01/12 12:07:16;;;;;;;74.78;38.63;;;-0.60;74.30;;;;;;4070750;29;20190;-79
2024/01/12 12:09:18;;;;;;;72.10;37.92;;;-0.40;74.10;;;;;;4070411;29;20113;-75
2024/01/12 12:11:19;;;;;;;75.55;38.03;;;-0.40;74.00;;;;;;4070694;29;20524;-76
2024/01/12 12:13:21;;;;;;;75.38;38.22;;;-0.30;73.80;;;;;;4070616;29;20052;-77
2024/01/12 12:15:26;;;;;;;70.18;37.88;;;-0.10;73.70;;;;;;4070549;29;20052;-81
2024/01/12 12:17:29;;;;;;;82.97;42.25;;;0.00;73.50;;;;;;4070247;29;20461;-76
2024/01/12 12:19:31;;;;;;;85.68;42.13;;;0.20;73.50;;;;;;4070091;29;20051;-79
2024/01/12 12:21:34;;;;;;;78.85;40.83;;;0.40;73.20;;;;;;4070526;29;20048;-80
2024/01/12 12:23:40;;;;;;;75.97;40.00;;;0.50;72.60;;;;;;4070511;29;20048;-78
2024/01/12 12:25:44;;;;;;;;;;;0.60;71.70;;;;;;4070735;29;20131;-79
2024/01/12 12:27:47;;;;;;;74.45;37.40;;;0.80;71.30;;;;;;4070143;29;19926;-80
2024/01/12 12:29:51;;;;;;;69.63;37.42;;;0.90;71.10;;;;;;4070481;29;20126;-79
2024/01/12 12:31:52;;;;;;;75.10;39.08;;;1.00;70.70;;;;;;4070109;29;20099;-75
2024/01/12 12:33:56;;;;;;;70.65;38.95;;;1.20;71.20;;;;;;4070233;29;20095;-78
2024/01/12 12:36:07;;;;;;;71.75;39.38;;;1.30;71.60;;;;;;4069995;29;20056;-79
2024/01/12 12:38:08;;;;;;;72.00;40.50;;;1.60;70.60;;;;;;4069797;29;20478;-77
2024/01/12 12:40:12;;;;;;;74.93;40.28;;;1.70;69.40;;;;;;4069495;29;20048;-77
2024/01/12 12:42:14;;;;;;;69.75;38.25;;;1.90;68.40;;;;;;4054475;29;20447;-81
2024/01/12 12:44:16;;;;;;;74.80;40.10;;;2.00;67.20;;;;;;4054854;29;20100;-81
2024/01/12 12:46:18;;;;;;;73.25;40.05;;;2.10;67.40;;;;;;4060026;29;20040;-77
2024/01/12 12:48:19;;;;;;;76.30;39.97;;;2.40;67.40;;;;;;4070045;29;20450;-79
2024/01/12 12:50:23;;;;;;;74.35;39.00;;;2.60;65.20;;;;;;4070132;29;20091;-77
2024/01/12 12:52:25;;;;;;;71.45;38.42;;;2.80;64.20;;;;;;4067476;29;20401;-78
2024/01/12 12:54:27;;;;;;;70.00;38.30;;;3.10;64.10;;;;;;4068182;29;20112;-77
2024/01/12 12:56:29;;;;;;;71.75;37.58;;;3.40;62.40;;;;;;4068351;29;20151;-80
2024/01/12 12:58:32;;;;;;;61.35;35.58;;;3.80;60.90;;;;;;4067832;29;20052;-79
2024/01/12 13:00:33;;;;;;;64.43;36.30;;;5.00;58.60;;;;;;4067635;29;20147;-81
2024/01/12 13:02:34;;;;;;;64.05;35.83;;;8.10;52.60;;;;;;4050644;29;20060;-78
2024/01/12 13:04:36;;;;;;;61.92;35.83;;;10.60;47.10;;;;;;4067130;29;20103;-80
2024/01/12 13:06:40;;;;;;;60.05;35.20;;;12.60;41.80;;;;;;4067779;29;20052;-81
2024/01/12 13:08:42;;;;;;;62.67;37.85;;;14.00;37.60;;;;;;4067541;29;20483;-80
2024/01/12 13:10:44;;;;;;;61.30;36.35;;;14.40;34.90;;;;;;4067638;29;20139;-81
2024/01/12 13:12:46;;;;;;;58.65;36.60;;;15.10;34.20;;;;;;4067632;29;20048;-80
2024/01/12 13:14:48;;;;;;;59.95;37.05;;;16.30;32.00;;;;;;4067660;29;20060;-79
2024/01/12 13:16:50;;;;;;;60.53;38.47;;;17.30;30.30;;;;;;4067526;29;20112;-80
2024/01/12 13:18:53;;;;;;;56.58;37.80;;;17.80;29.40;;;;;;4067367;29;20378;-78
2024/01/12 13:20:55;;;;;;;61.20;39.97;;;17.80;28.70;;;;;;4067189;29;20080;-80
2024/01/12 13:22:59;;;;;;;59.08;37.88;;;18.60;28.00;;;;;;4067446;29;20091;-77
2024/01/12 13:25:02;;;;;;;58.70;39.05;;;18.90;27.10;;;;;;4065745;29;20128;-80
2024/01/12 13:27:04;;;;;;;56.92;38.70;;;19.80;26.70;;;;;;4050601;29;20056;-78
2024/01/12 13:29:08;;;;;;;55.47;38.75;;;20.40;25.30;;;;;;4067032;29;20056;-80
2024/01/12 13:31:10;;;;;;;53.50;38.67;;;21.00;24.90;;;;;;4067239;29;20485;-80
2024/01/12 13:33:12;;;;;;;57.13;39.13;;;21.20;24.40;;;;;;4067004;29;20064;-79
2024/01/12 13:35:14;;;;;;;54.90;38.83;;;21.60;23.80;;;;;;4067333;29;20056;-80
2024/01/12 13:37:15;;;;;;;53.00;38.33;;;21.90;23.50;;;;;;4067261;29;20541;-77
2024/01/12 13:39:18;;;;;;;55.03;38.65;;;22.40;22.60;;;;;;4066866;29;20059;-80
2024/01/12 13:41:21;;;;;;;54.47;37.72;;;22.90;22.30;;;;;;4066900;29;20127;-78
2024/01/12 13:43:23;;;;;;;55.75;38.30;;;23.30;21.50;;;;;;4067183;29;20135;-77
2024/01/12 13:45:26;;;;;;;52.40;37.53;;;23.50;21.30;;;;;;4067132;29;20462;-79
2024/01/12 13:47:28;;;;;;;53.45;39.13;;;23.70;21.20;;;;;;4066933;29;20560;-74
2024/01/12 13:49:29;;;;;;;52.83;39.30;;;24.00;20.70;;;;;;4066994;29;20056;-79
2024/01/12 13:51:31;;;;;;;53.92;38.70;;;24.00;20.50;;;;;;4066892;29;20052;-79
2024/01/12 13:53:33;;;;;;;51.88;38.67;;;24.20;20.30;;;;;;4066953;29;20044;-80
2024/01/12 13:55:38;;;;;;;50.60;38.70;;;24.70;20.00;;;;;;4067242;29;20399;-78
2024/01/12 13:57:39;;;;;;;55.60;39.30;;;25.00;19.70;;;;;;4066611;29;20131;-80
2024/01/12 13:59:42;;;;;;;52.67;37.28;;;25.30;19.50;;;;;;4066866;29;20490;-76
2024/01/12 14:01:44;;;;;;;52.20;38.78;;;25.30;19.10;;;;;;4066749;29;20115;-79
2024/01/12 14:03:47;;;;;;;53.70;39.28;;;25.10;19.50;;;;;;4066382;29;20117;-78
2024/01/12 14:05:49;;;;;;;52.78;39.28;;;24.70;19.30;;;;;;4066962;29;20048;-78
2024/01/12 14:07:51;;;;;;;51.88;39.97;;;24.80;19.20;;;;;;4066624;29;20080;-80
2024/01/12 14:09:53;;;;;;;55.55;41.20;;;25.20;19.00;;;;;;4066733;29;20144;-80
2024/01/12 14:11:56;;;;;;;53.72;41.60;;;25.80;18.70;;;;;;4066627;29;20040;-77
2024/01/12 14:13:58;;;;;;;50.33;38.70;;;25.90;18.50;;;;;;4067146;29;20060;-78
2024/01/12 14:16:00;;;;;;;52.83;39.78;;;25.70;18.50;;;;;;4066549;29;20056;-79
2024/01/12 14:18:02;;;;;;;53.10;40.10;;;25.70;18.30;;;;;;4066456;29;20048;-78
2024/01/12 14:20:05;;;;;;;51.97;39.00;;;25.90;18.10;;;;;;4066927;29;20455;-77
2024/01/12 14:22:07;;;;;;;51.78;39.58;;;26.00;18.00;;;;;;4067188;29;20052;-79
2024/01/12 14:24:08;;;;;;;50.78;39.47;;;25.80;18.00;;;;;;4066787;29;20048;-78
2024/01/12 14:26:10;;;;;;;50.35;37.83;;;25.30;18.30;;;;;;4065571;29;20107;-79
2024/01/12 14:28:13;;;;;;;53.38;39.00;;;25.30;18.40;;;;;;4066694;29;20378;-75
2024/01/12 14:30:15;;;;;;;50.63;38.65;;;25.10;18.50;;;;;;4066868;29;20063;-79
2024/01/12 14:32:17;;;;;;;53.35;39.17;;;25.10;18.40;;;;;;4067173;29;20075;-75
2024/01/12 14:34:18;;;;;;;52.03;40.38;;;24.90;18.30;;;;;;4067050;29;20056;-76
2024/01/12 14:36:20;;;;;;;50.38;39.28;;;24.50;18.70;;;;;;4067106;29;20048;-78
2024/01/12 14:38:21;;;;;;;52.67;40.65;;;23.90;19.40;;;;;;4066635;29;20056;-79
2024/01/12 14:40:22;;;;;;;56.00;42.15;;;23.00;20.10;;;;;;4066557;29;20557;-78
2024/01/12 14:42:24;;;;;;;52.42;40.47;;;21.60;20.90;;;;;;4066937;29;20115;-79
2024/01/12 14:44:29;;;;;;;54.83;41.38;;;21.70;21.20;;;;;;4066595;29;20048;-79
2024/01/12 14:46:31;;;;;;;54.85;41.13;;;22.10;20.90;;;;;;4066809;29;20056;-79
2024/01/12 14:48:35;;;;;;;54.13;40.70;;;21.70;21.00;;;;;;4066599;29;20052;-78
2024/01/12 14:50:37;;;;;;;59.40;41.20;;;20.20;21.70;;;;;;4067010;29;20048;-78
2024/01/12 14:52:39;;;;;;;56.95;41.65;;;17.90;23.70;;;;;;4066299;29;20167;-78
2024/01/12 14:54:44;;;;;;;62.58;43.97;;;16.20;25.70;;;;;;4066567;29;20131;-79
2024/01/12 14:56:46;;;;;;;62.83;43.97;;;14.50;27.70;;;;;;4066738;29;20051;-79
2024/01/12 14:58:49;;;;;;;74.38;53.05;;;13.20;29.70;;;;;;4066759;29;20425;-78
2024/01/12 15:00:52;;;;;;;92.03;63.60;;;13.90;30.00;;;;;;4066678;29;20785;-80
2024/01/12 15:02:53;;;;;;;71.95;51.53;;;15.10;28.80;;;;;;4067050;29;20107;-77
2024/01/12 15:04:55;;;;;;;65.38;48.53;;;15.60;28.00;;;;;;4066183;29;20438;-78
2024/01/12 15:06:57;;;;;;;66.80;45.63;;;15.80;27.60;;;;;;4066184;29;20466;-76
2024/01/12 15:08:59;;;;;;;61.72;43.15;;;15.90;27.30;;;;;;4066902;29;20059;-80
2024/01/12 15:11:01;;;;;;;60.20;42.33;;;15.40;27.90;;;;;;4062640;29;20048;-81
2024/01/12 15:13:03;;;;;;;63.38;43.28;;;15.20;28.40;;;;;;4065454;29;20454;-79
2024/01/12 15:15:06;;;;;;;61.67;44.17;;;15.10;28.60;;;;;;4076413;29;20036;-75
2024/01/12 15:17:10;;;;;;;63.70;43.72;;;14.50;29.10;;;;;;4085076;29;20079;-78
2024/01/12 15:19:12;;;;;;;64.68;43.63;;;13.70;29.80;;;;;;4083506;29;20115;-74
2024/01/12 15:21:14;;;;;;;65.93;43.35;;;12.30;31.50;;;;;;4084447;29;20048;-75
2024/01/12 15:23:16;;;;;;;67.25;43.00;;;11.20;33.80;;;;;;4085239;29;20068;-74
2024/01/12 15:25:18;;;;;;;68.45;44.20;;;10.40;35.70;;;;;;4073620;29;20060;-77
2024/01/12 15:27:20;;;;;;;63.60;41.83;;;10.00;36.90;;;;;;4072027;29;20060;-77
2024/01/12 15:29:22;;;;;;;68.45;43.85;;;9.80;37.50;;;;;;4069480;29;20099;-78
2024/01/12 15:31:24;;;;;;;67.25;43.33;;;9.20;38.40;;;;;;4068608;29;20123;-79
2024/01/12 15:33:27;;;;;;;69.57;44.38;;;8.30;40.20;;;;;;4068745;29;20453;-79
2024/01/12 15:35:29;;;;;;;74.78;44.22;;;7.60;42.00;;;;;;4068822;29;20052;-78
2024/01/12 15:37:31;;;;;;;71.38;43.33;;;7.10;43.30;;;;;;4068633;29;20052;-79
2024/01/12 15:39:32;;;;;;;85.55;51.95;;;6.70;44.60;;;;;;4068860;29;20063;-77
2024/01/12 15:41:34;;;;;;;81.00;49.13;;;6.30;45.60;;;;;;4068744;29;20060;-75
2024/01/12 15:43:36;;;;;;;87.15;49.25;;;5.90;46.60;;;;;;4068528;29;20113;-79
2024/01/12 15:45:39;;;;;;;70.43;44.78;;;5.60;47.50;;;;;;4068516;29;20044;-75
2024/01/12 15:47:40;;;;;;;77.22;45.72;;;5.30;48.50;;;;;;4068630;29;20052;-78
2024/01/12 15:49:44;;;;;;;76.90;44.83;;;5.00;49.30;;;;;;4068877;29;20705;-79
2024/01/12 15:51:45;;;;;;;73.38;43.25;;;4.70;50.30;;;;;;4067969;29;20055;-77
2024/01/12 15:53:46;;;;;;;74.07;43.90;;;4.50;51.00;;;;;;4068117;29;20100;-77
2024/01/12 15:55:48;;;;;;;72.03;43.22;;;4.30;51.60;;;;;;4068495;29;20812;-80
2024/01/12 15:57:50;;;;;;;73.03;43.47;;;4.10;52.30;;;;;;4068882;29;20048;-79
2024/01/12 15:59:51;;;;;;;74.70;43.45;;;3.80;52.90;;;;;;4067384;29;20048;-76
2024/01/12 16:01:53;;;;;;;72.13;41.80;;;3.70;53.60;;;;;;4067665;29;20063;-78
2024/01/12 16:03:55;;;;;;;72.47;43.65;;;3.50;54.20;;;;;;4067621;29;20469;-76
2024/01/12 16:05:58;;;;;;;75.00;43.35;;;3.30;54.80;;;;;;4068298;29;20052;-78
2024/01/12 16:08:00;;;;;;;76.55;43.70;;;3.10;55.30;;;;;;4068763;29;20453;-77
2024/01/12 16:10:03;;;;;;;75.22;44.35;;;3.00;56.00;;;;;;4068639;29;20133;-75
2024/01/12 16:12:06;;;;;;;78.80;42.90;;;2.90;56.40;;;;;;4068658;29;20056;-76
2024/01/12 16:14:08;;;;;;;73.95;42.10;;;2.70;56.70;;;;;;4068561;29;20136;-77
2024/01/12 16:16:10;;;;;;;74.88;41.78;;;2.60;57.20;;;;;;4068215;29;20474;-77
2024/01/12 16:18:12;;;;;;;72.90;40.45;;;2.40;57.80;;;;;;4067952;29;20135;-77
2024/01/12 16:20:14;;;;;;;73.63;41.90;;;2.40;58.40;;;;;;4068581;29;20083;-73
2024/01/12 16:22:18;;;;;;;74.80;41.28;;;2.30;58.50;;;;;;4068029;29;20060;-75